Terminal Aerodrome Forecast
Issued by NWS

Home | Current Version | Previous Version | Text Only | Print | Product List | Glossary On
Versions: 1 2 3 4 5 6 7 8 9 10 11 12 13 14 15 16
531
FTUS42 TJSJ 250622 AAA
TAFISX
TAF AMD
TISX 250622Z 2506/2606 11007KT P6SM -SHRA FEW025 SCT035
      TEMPO 2506/2508 5SM +SHRA BKN025
     FM251330 11013KT P6SM SHRA VCTS SCT025CB BKN040
     FM252300 08007KT P6SM VCSH SCT025=

USA.gov is the U.S. government's official web portal to all federal, state and local government web resources and services.